Time;durP1;ratioP1;P1;durP2;ratioP2;P2;SDS_P1;SDS_P2;PMS_P1;PMS_P2;Temp;Humidity;BMP_temperature;BMP_pressure;BME280_temperature;BME280_humidity;BME280_pressure;Samples;Min_cycle;Max_cycle;Signal;HPM_P1;HPM_P2
2021/12/28 00:00:32;;;;;;;83.43;37.95;;;;;;;-3.55;89.91;99774.94;5043372;28;20049;-59
2021/12/28 00:03:00;;;;;;;87.57;38.97;;;;;;;-3.61;89.27;99761.28;5031281;28;20049;-57
2021/12/28 00:05:27;;;;;;;83.13;40.08;;;;;;;-3.63;89.92;99772.47;5046324;28;20049;-59
2021/12/28 00:07:55;;;;;;;88.68;38.90;;;;;;;-3.65;90.08;99769.06;5049704;28;20337;-60
2021/12/28 00:10:22;;;;;;;86.88;38.33;;;;;;;-3.67;89.87;99770.81;5042669;28;20051;-60
2021/12/28 00:12:49;;;;;;;85.88;38.42;;;;;;;-3.58;90.13;99771.53;5052182;28;20140;-59
2021/12/28 00:18:00;;;;;;;89.40;41.35;;;;;;;-3.66;90.57;99760.50;5045024;28;20139;-60
2021/12/28 00:20:36;;;;;;;88.13;39.75;;;;;;;-3.65;90.18;99769.06;5043007;28;20102;-59
2021/12/28 00:23:05;;;;;;;98.38;40.28;;;;;;;-3.63;90.51;99763.03;5049041;28;20057;-60
2021/12/28 00:25:33;;;;;;;88.60;40.25;;;;;;;-3.73;90.02;99764.06;5029209;28;20081;-59
2021/12/28 00:28:00;;;;;;;91.13;40.85;;;;;;;-3.74;90.61;99767.47;5045190;28;20048;-59
2021/12/28 00:30:29;;;;;;;89.85;41.40;;;;;;;-3.76;91.22;99768.38;5045729;28;20052;-60
2021/12/28 00:32:56;;;;;;;83.15;39.30;;;;;;;-3.76;91.06;99774.38;5032463;28;20055;-59
2021/12/28 00:35:26;;;;;;;83.20;38.97;;;;;;;-3.84;91.64;99765.91;5045791;28;20088;-59
2021/12/28 00:37:53;;;;;;;89.80;40.58;;;;;;;-3.81;91.75;99771.03;5048298;28;20081;-58
2021/12/28 00:40:21;;;;;;;85.38;39.60;;;;;;;-3.78;91.54;99781.28;5046124;28;20045;-60
2021/12/28 00:42:48;;;;;;;84.57;38.50;;;;;;;-3.78;91.20;99776.13;5048939;28;20045;-60
2021/12/28 00:45:16;;;;;;;95.53;42.13;;;;;;;-3.82;91.81;99774.47;5040655;28;20057;-60
2021/12/28 00:47:44;;;;;;;93.97;40.97;;;;;;;-3.77;91.13;99771.84;5037664;28;20057;-60
2021/12/28 00:50:13;;;;;;;88.30;40.50;;;;;;;-3.85;91.87;99769.38;5044568;28;20103;-58
2021/12/28 00:52:41;;;;;;;93.05;40.80;;;;;;;-3.86;91.70;99783.94;5049100;28;20060;-58
2021/12/28 00:55:09;;;;;;;88.05;41.33;;;;;;;-3.82;91.74;99777.03;5046419;28;20067;-60
2021/12/28 00:57:36;;;;;;;92.15;41.35;;;;;;;-3.89;91.61;99775.41;5048210;28;20049;-59
2021/12/28 01:00:07;;;;;;;91.25;38.75;;;;;;;-3.86;92.22;99773.66;5045937;28;20057;-59
2021/12/28 01:02:34;;;;;;;98.05;43.05;;;;;;;-3.91;92.47;99769.47;5048813;28;20091;-60
2021/12/28 01:05:02;;;;;;;93.55;41.28;;;;;;;-3.92;92.42;99752.31;5045253;28;20059;-60
2021/12/28 01:07:29;;;;;;;83.80;40.90;;;;;;;-3.90;92.56;99745.44;5047956;28;20140;-60
2021/12/28 01:09:56;;;;;;;98.20;41.67;;;;;;;-3.87;92.42;99750.56;5031090;28;20082;-59
2021/12/28 01:12:24;;;;;;;87.72;40.45;;;;;;;-3.94;92.43;99741.22;5052895;28;20049;-58
2021/12/28 01:14:51;;;;;;;92.45;42.72;;;;;;;-3.90;92.14;99745.44;5050533;28;20049;-60
2021/12/28 01:17:18;;;;;;;88.40;39.60;;;;;;;-3.93;92.32;99745.47;5051559;28;20060;-59
2021/12/28 01:19:45;;;;;;;91.30;40.83;;;;;;;-3.92;92.07;99750.63;5046860;28;20049;-60
2021/12/28 01:22:12;;;;;;;85.60;39.42;;;;;;;-3.93;93.07;99755.75;5057112;28;20509;-59
2021/12/28 01:24:40;;;;;;;93.20;39.83;;;;;;;-3.92;92.75;99760.91;5048080;28;20051;-58
2021/12/28 01:27:07;;;;;;;91.22;41.88;;;;;;;-3.88;92.91;99769.41;5051933;28;20057;-60
2021/12/28 01:29:34;;;;;;;89.97;41.30;;;;;;;-3.85;92.47;99765.06;5048937;28;20874;-58
2021/12/28 01:32:02;;;;;;;92.03;42.10;;;;;;;-3.88;92.33;99764.25;5052291;28;20053;-60
2021/12/28 01:34:29;;;;;;;96.25;41.63;;;;;;;-3.98;92.71;99762.69;5047885;28;20056;-59
2021/12/28 01:36:56;;;;;;;90.43;41.60;;;;;;;-4.07;93.14;99748.25;5052153;28;20071;-58
2021/12/28 01:39:23;;;;;;;89.32;40.13;;;;;;;-4.10;93.21;99749.16;5048722;28;20053;-60
2021/12/28 01:41:50;;;;;;;90.80;41.63;;;;;;;-4.10;94.08;99749.16;5064954;22;20548;-63
2021/12/28 01:44:17;;;;;;;92.15;40.40;;;;;;;-4.12;94.05;99740.59;5049460;28;20066;-63
2021/12/28 01:46:44;;;;;;;88.88;40.55;;;;;;;-4.12;93.76;99734.59;5035943;28;20507;-63
2021/12/28 01:49:12;;;;;;;89.40;41.08;;;;;;;-4.06;93.05;99729.38;5044115;28;20472;-63
2021/12/28 01:51:39;;;;;;;92.40;43.22;;;;;;;-4.09;93.63;99725.13;5055368;28;20080;-63
2021/12/28 01:54:07;;;;;;;93.13;41.30;;;;;;;-4.02;93.53;99720.75;5037914;28;20050;-63
2021/12/28 01:56:38;;;;;;;94.60;41.53;;;;;;;-4.00;93.56;99723.31;5000587;28;20140;-63
2021/12/28 01:59:10;;;;;;;92.65;40.03;;;;;;;-4.07;93.24;99717.41;5043415;28;20477;-63
2021/12/28 02:01:38;;;;;;;91.47;39.70;;;;;;;-4.05;92.86;99709.66;5053168;28;20063;-63
2021/12/28 02:04:16;;;;;;;97.13;41.58;;;;;;;-4.10;93.01;99702.88;5048528;28;20045;-63
2021/12/28 02:06:43;;;;;;;98.57;43.35;;;;;;;-3.99;93.41;99696.72;5045748;28;20056;-63
2021/12/28 02:09:10;;;;;;;84.95;40.13;;;;;;;-4.02;93.24;99697.59;5034537;28;20470;-63
2021/12/28 02:11:38;;;;;;;93.60;41.45;;;;;;;-4.10;93.40;99695.16;5035910;28;20073;-63
2021/12/28 02:14:07;;;;;;;92.72;41.05;;;;;;;-4.11;93.61;99733.72;5041116;28;20056;-62
2021/12/28 02:16:37;;;;;;;98.70;43.17;;;;;;;-4.11;93.59;99724.28;5044682;28;20418;-62
2021/12/28 02:19:05;;;;;;;92.35;40.95;;;;;;;-4.08;93.00;99716.53;5036105;28;20245;-62
2021/12/28 02:21:32;;;;;;;93.28;41.92;;;;;;;-4.14;93.11;99726.94;5038407;28;20153;-62
2021/12/28 02:24:04;;;;;;;92.40;43.13;;;;;;;-4.15;93.33;99730.34;5042306;28;20057;-62
2021/12/28 02:26:32;;;;;;;106.30;42.88;;;;;;;-4.18;93.33;99738.13;5044540;28;20530;-62
2021/12/28 02:29:00;;;;;;;100.05;43.22;;;;;;;-4.13;93.64;99720.06;5029296;28;20136;-61
2021/12/28 02:31:27;;;;;;;98.38;44.88;;;;;;;-4.15;93.33;99716.66;5039895;28;20061;-62
2021/12/28 02:33:54;;;;;;;102.45;42.60;;;;;;;-4.15;93.03;99701.22;5020907;28;20049;-62
2021/12/28 02:36:22;;;;;;;95.05;41.45;;;;;;;-4.20;93.39;99700.44;4994020;28;20067;-62
2021/12/28 02:38:49;;;;;;;101.78;44.63;;;;;;;-4.18;93.88;99693.59;5048555;28;20060;-62
2021/12/28 02:41:16;;;;;;;102.93;44.58;;;;;;;-4.28;93.64;99697.97;5036178;28;20091;-62
2021/12/28 02:43:48;;;;;;;97.45;43.22;;;;;;;-4.18;93.17;99688.44;5043446;28;20083;-63
2021/12/28 02:46:16;;;;;;;99.72;43.75;;;;;;;-4.27;93.48;99686.00;5044208;28;20101;-63
2021/12/28 02:48:43;;;;;;;91.25;43.30;;;;;;;-4.34;93.89;99674.94;5023829;28;20059;-63
2021/12/28 02:51:13;;;;;;;99.55;43.83;;;;;;;-4.37;94.17;99673.28;5051308;28;20572;-63
2021/12/28 02:53:41;;;;;;;96.38;43.08;;;;;;;-4.38;93.81;99670.72;5040422;28;20041;-63
2021/12/28 02:56:09;;;;;;;105.55;45.22;;;;;;;-4.38;94.43;99663.00;5049719;28;20057;-63
2021/12/28 02:58:46;;;;;;;102.65;45.22;;;;;;;-4.36;94.04;99657.00;5042703;28;20072;-63
2021/12/28 03:01:14;;;;;;;103.32;43.10;;;;;;;-4.28;93.87;99650.88;5043972;28;20049;-63
2021/12/28 03:03:43;;;;;;;96.20;43.42;;;;;;;-4.27;93.91;99653.44;5036597;28;20045;-63
2021/12/28 03:06:14;;;;;;;97.97;43.40;;;;;;;-4.28;93.78;99638.88;5028937;28;20068;-63
2021/12/28 03:08:45;;;;;;;98.25;43.72;;;;;;;-4.37;93.78;99662.13;5035032;28;20107;-63
2021/12/28 03:11:12;;;;;;;98.03;44.72;;;;;;;-4.35;93.94;99668.09;5028689;28;20052;-63
2021/12/28 03:13:43;;;;;;;102.15;44.63;;;;;;;-4.19;93.82;99672.13;5037999;28;20409;-61
2021/12/28 03:16:10;;;;;;;97.30;45.85;;;;;;;-4.12;92.69;99676.34;5041535;28;20153;-63
2021/12/28 03:18:38;;;;;;;97.47;43.38;;;;;;;-4.19;93.10;99672.13;5048170;28;20079;-63
2021/12/28 03:21:06;;;;;;;102.35;45.15;;;;;;;-4.28;93.11;99663.72;5041497;28;20096;-63
2021/12/28 03:23:34;;;;;;;99.00;45.45;;;;;;;-4.28;93.50;99667.13;5043062;28;20071;-63
2021/12/28 03:26:03;;;;;;;107.13;44.42;;;;;;;-4.21;92.96;99650.78;5038008;28;20068;-63
2021/12/28 03:28:32;;;;;;;98.50;44.92;;;;;;;-4.25;93.62;99641.41;5020553;28;20135;-63
2021/12/28 03:31:04;;;;;;;94.97;44.40;;;;;;;-4.23;93.25;99647.38;5025087;28;20064;-63
2021/12/28 03:33:34;;;;;;;107.85;45.42;;;;;;;-4.17;92.69;99643.88;5035679;28;20115;-62
2021/12/28 03:36:03;;;;;;;95.13;42.75;;;;;;;-4.16;92.28;99635.28;5039953;28;20056;-62
2021/12/28 03:38:31;;;;;;;101.57;43.15;;;;;;;-4.19;92.74;99643.88;5038260;28;20432;-63
2021/12/28 03:40:58;;;;;;;102.32;44.80;;;;;;;-4.15;92.90;99637.81;5053692;28;20132;-62
2021/12/28 03:43:25;;;;;;;98.53;44.90;;;;;;;-4.11;92.20;99629.19;5041930;28;20060;-62
2021/12/28 03:45:52;;;;;;;110.40;46.58;;;;;;;-4.23;93.26;99613.09;5039822;28;20568;-61
2021/12/28 03:48:19;;;;;;;97.40;44.42;;;;;;;-4.26;93.64;99608.03;5039505;28;20065;-63
2021/12/28 03:50:47;;;;;;;104.18;45.97;;;;;;;-4.26;93.00;99611.44;5036464;28;20521;-63
2021/12/28 03:53:14;;;;;;;103.18;45.60;;;;;;;-4.17;93.37;99601.03;5039394;28;20128;-63
2021/12/28 03:55:41;;;;;;;99.13;44.80;;;;;;;-4.15;93.19;99601.84;5040071;28;20049;-61
2021/12/28 03:58:08;;;;;;;109.05;47.58;;;;;;;-4.21;92.99;99594.22;5038982;28;20065;-62
2021/12/28 04:00:41;;;;;;;102.43;44.58;;;;;;;-4.21;93.00;99599.38;5041070;28;20555;-62
2021/12/28 04:03:08;;;;;;;110.18;44.80;;;;;;;-4.23;92.95;99588.28;5039592;28;20140;-63
2021/12/28 04:05:37;;;;;;;104.80;44.72;;;;;;;-4.29;93.70;99584.94;5024420;28;20061;-63
2021/12/28 04:08:04;;;;;;;101.65;45.05;;;;;;;-4.14;92.94;99580.44;5035959;28;20051;-63
2021/12/28 04:10:38;;;;;;;99.43;46.25;;;;;;;-4.20;93.12;99580.50;5040597;28;20049;-62
2021/12/28 04:13:05;;;;;;;98.15;45.53;;;;;;;-4.13;92.85;99583.84;5020768;28;20059;-62
2021/12/28 04:15:32;;;;;;;98.38;45.13;;;;;;;-4.12;92.43;99577.81;5042460;28;20126;-63
2021/12/28 04:17:59;;;;;;;101.32;45.85;;;;;;;-4.06;92.78;99582.84;5037923;28;20124;-63
2021/12/28 04:20:27;;;;;;;107.25;45.17;;;;;;;-4.00;92.73;99569.91;5038028;28;20057;-63
2021/12/28 04:22:54;;;;;;;100.65;45.38;;;;;;;-3.96;92.08;99563.84;5029983;28;20053;-63
2021/12/28 04:25:21;;;;;;;105.50;47.05;;;;;;;-3.94;91.46;99554.38;5036820;28;20059;-63
2021/12/28 04:27:48;;;;;;;97.90;43.63;;;;;;;-3.92;92.06;99542.38;5041326;28;20045;-63
2021/12/28 04:30:16;;;;;;;101.53;44.55;;;;;;;-3.85;91.44;99538.78;5038404;28;20057;-63
2021/12/28 04:32:44;;;;;;;105.72;45.25;;;;;;;-3.82;90.75;99541.31;5040664;28;20440;-63
2021/12/28 04:35:12;;;;;;;98.70;45.08;;;;;;;-3.91;91.41;99532.94;5030136;28;20072;-63
2021/12/28 04:37:40;;;;;;;97.53;43.90;;;;;;;-3.91;91.58;99540.63;5044005;28;20063;-63
2021/12/28 04:40:09;;;;;;;104.32;46.97;;;;;;;-3.85;91.62;99531.09;5041363;28;20540;-63
2021/12/28 04:42:38;;;;;;;107.05;47.25;;;;;;;-3.85;91.36;99531.09;5047064;28;20055;-63
2021/12/28 04:45:07;;;;;;;106.47;45.88;;;;;;;-3.82;91.14;99533.59;5045898;28;20139;-63
2021/12/28 04:47:35;;;;;;;103.45;45.75;;;;;;;-3.90;91.40;99543.19;5043387;28;20060;-63
2021/12/28 04:50:04;;;;;;;107.43;47.20;;;;;;;-3.79;90.90;99554.97;5050423;28;20057;-63
2021/12/28 04:52:35;;;;;;;97.50;42.00;;;;;;;-3.93;91.47;99561.22;5045846;28;20050;-62
2021/12/28 04:55:06;;;;;;;94.57;43.25;;;;;;;-3.88;90.85;99553.41;5040370;28;20053;-63
2021/12/28 04:57:33;;;;;;;106.13;47.78;;;;;;;-3.90;91.23;99544.91;5047392;28;20088;-63
2021/12/28 05:00:00;;;;;;;103.28;45.20;;;;;;;-3.84;91.36;99537.91;5043614;28;20049;-62
2021/12/28 05:02:29;;;;;;;101.00;44.88;;;;;;;-3.86;91.02;99533.69;5024788;28;20045;-63
2021/12/28 05:04:56;;;;;;;105.57;44.60;;;;;;;-3.92;91.69;99533.78;5046805;28;20047;-63
2021/12/28 05:07:27;;;;;;;99.55;46.20;;;;;;;-3.86;91.60;99523.41;5045119;28;20592;-63
2021/12/28 05:09:57;;;;;;;110.93;46.78;;;;;;;-3.86;91.89;99524.25;5008422;28;20073;-63
2021/12/28 05:12:25;;;;;;;107.78;46.97;;;;;;;-3.82;91.16;99537.91;5034742;28;20056;-65
2021/12/28 05:14:53;;;;;;;104.07;45.45;;;;;;;-3.78;91.32;99547.25;5036268;28;20373;-63
2021/12/28 05:17:20;;;;;;;102.60;45.55;;;;;;;-3.67;91.17;99535.03;5031647;28;20517;-62
2021/12/28 05:19:47;;;;;;;99.47;43.85;;;;;;;-3.61;90.16;99528.94;5047926;28;20059;-60
2021/12/28 05:22:14;;;;;;;102.53;46.17;;;;;;;-3.62;90.14;99520.38;5046525;28;20128;-60
2021/12/28 05:24:41;;;;;;;108.18;45.10;;;;;;;-3.57;90.56;99518.56;5033157;28;20064;-61
2021/12/28 05:27:09;;;;;;;100.70;45.25;;;;;;;-3.54;90.06;99506.53;5045339;28;20063;-63
2021/12/28 05:29:36;;;;;;;100.85;45.03;;;;;;;-3.45;90.25;99522.63;5027330;28;20049;-63
2021/12/28 05:32:03;;;;;;;101.38;45.05;;;;;;;-3.44;89.64;99526.03;5021955;28;20053;-63
2021/12/28 05:34:30;;;;;;;103.40;44.95;;;;;;;-3.43;89.66;99533.72;5036190;28;20057;-63
2021/12/28 05:36:57;;;;;;;114.97;48.60;;;;;;;-3.37;89.69;99543.06;5041845;28;20082;-62
2021/12/28 05:39:25;;;;;;;107.68;47.03;;;;;;;-3.37;89.65;99545.63;5048988;28;20415;-63
2021/12/28 05:41:52;;;;;;;111.97;47.67;;;;;;;-3.44;89.13;99539.75;5035781;28;20052;-63
2021/12/28 05:44:19;;;;;;;103.70;44.60;;;;;;;-3.43;89.08;99532.88;5051553;28;20139;-62
2021/12/28 05:46:46;;;;;;;105.40;46.03;;;;;;;-3.43;89.14;99527.72;5045621;28;20080;-63
2021/12/28 05:49:13;;;;;;;101.47;45.05;;;;;;;-3.46;89.84;99515.78;5038342;28;20060;-62
2021/12/28 05:51:41;;;;;;;106.63;45.92;;;;;;;-3.39;89.51;99517.34;5040166;28;20045;-63
2021/12/28 05:54:08;;;;;;;100.82;46.00;;;;;;;-3.36;89.29;99519.03;5038812;28;20049;-63
2021/12/28 05:56:36;;;;;;;111.80;47.25;;;;;;;-3.33;88.66;99509.53;5045549;28;20056;-63
2021/12/28 05:59:03;;;;;;;103.82;46.08;;;;;;;-3.30;88.67;99503.44;5039291;28;20132;-63
2021/12/28 06:01:31;;;;;;;98.07;44.15;;;;;;;-3.34;89.61;99502.66;5051324;28;20140;-63
2021/12/28 06:03:58;;;;;;;104.85;46.55;;;;;;;-3.25;89.13;99500.78;5019692;28;20426;-62
2021/12/28 06:06:25;;;;;;;101.63;46.20;;;;;;;-3.31;89.18;99506.91;5049139;28;20473;-63
2021/12/28 06:08:57;;;;;;;104.63;44.75;;;;;;;-3.31;88.81;99499.19;5032948;28;20532;-62
2021/12/28 06:11:24;;;;;;;105.00;43.95;;;;;;;-3.25;89.15;99498.19;5049460;28;20502;-62
2021/12/28 06:13:51;;;;;;;100.95;45.35;;;;;;;-3.25;88.99;99487.91;5047139;28;20497;-63
2021/12/28 06:16:19;;;;;;;111.82;47.47;;;;;;;-3.28;88.94;99493.13;5047904;28;20124;-63
2021/12/28 06:18:46;;;;;;;112.82;46.88;;;;;;;-3.26;89.09;99487.06;5049687;28;20140;-62
2021/12/28 06:21:13;;;;;;;101.05;46.22;;;;;;;-3.49;89.72;99484.13;5037226;28;20064;-62
2021/12/28 06:23:40;;;;;;;101.20;45.13;;;;;;;-3.40;89.85;99489.06;5013332;28;20080;-62
2021/12/28 06:26:07;;;;;;;104.60;47.47;;;;;;;-3.28;89.64;99493.97;5043579;28;20061;-63
2021/12/28 06:28:34;;;;;;;100.63;44.20;;;;;;;-3.31;90.31;99487.16;5029689;28;20053;-63
2021/12/28 06:31:02;;;;;;;101.47;45.03;;;;;;;-3.22;89.68;99488.69;5038746;28;20144;-62
2021/12/28 06:33:29;;;;;;;106.97;47.30;;;;;;;-3.23;90.05;99481.84;5023767;28;20705;-63
2021/12/28 06:35:56;;;;;;;105.80;45.50;;;;;;;-3.20;89.68;99486.06;5033873;28;20063;-61
2021/12/28 06:38:23;;;;;;;111.13;48.13;;;;;;;-3.16;89.86;99493.69;5026181;28;20508;-63
2021/12/28 06:40:50;;;;;;;100.88;44.38;;;;;;;-3.14;89.79;99486.81;5044089;28;20099;-63
2021/12/28 06:43:17;;;;;;;105.30;45.75;;;;;;;-3.12;89.71;99489.34;5041908;28;20049;-63
2021/12/28 06:45:45;;;;;;;111.75;45.13;;;;;;;-3.04;89.88;99486.63;5042356;28;20449;-63
2021/12/28 06:48:12;;;;;;;102.68;46.60;;;;;;;-2.97;88.99;99489.03;5041575;28;20163;-63
2021/12/28 06:50:39;;;;;;;102.10;43.78;;;;;;;-2.97;89.33;99490.72;5038941;28;20053;-63
2021/12/28 06:53:06;;;;;;;103.10;45.97;;;;;;;-3.04;88.94;99484.03;5036877;28;20132;-63
2021/12/28 06:55:33;;;;;;;98.80;44.38;;;;;;;-3.01;89.27;99484.81;5033138;28;20573;-63
2021/12/28 06:58:00;;;;;;;106.35;46.05;;;;;;;-3.05;89.90;99490.91;5023042;28;20635;-63
2021/12/28 07:00:28;;;;;;;100.55;45.40;;;;;;;-3.02;89.54;99479.69;5034313;28;20049;-63
2021/12/28 07:02:55;;;;;;;103.65;46.60;;;;;;;-3.07;90.10;99477.22;5043580;28;20056;-63
2021/12/28 07:05:22;;;;;;;109.10;45.05;;;;;;;-3.09;90.05;99469.53;5044009;28;20140;-63
2021/12/28 07:07:49;;;;;;;106.05;46.08;;;;;;;-3.09;90.05;99476.41;5041759;28;20391;-62
2021/12/28 07:10:20;;;;;;;102.20;46.03;;;;;;;-3.08;90.35;99471.22;5035647;28;20057;-63
2021/12/28 07:12:50;;;;;;;105.05;47.20;;;;;;;-2.95;90.08;99473.53;5041070;28;20098;-63
2021/12/28 07:15:18;;;;;;;116.18;47.47;;;;;;;-3.13;90.46;99470.47;5028949;28;20418;-63
2021/12/28 07:17:45;;;;;;;101.63;46.72;;;;;;;-3.07;90.07;99475.47;5042688;28;20080;-63
2021/12/28 07:20:13;;;;;;;112.15;46.67;;;;;;;-3.04;90.45;99471.16;5034731;28;20140;-63
2021/12/28 07:22:41;;;;;;;103.78;44.53;;;;;;;-3.01;90.63;99469.38;5032787;28;20068;-63
2021/12/28 07:25:09;;;;;;;99.15;43.95;;;;;;;-3.08;90.90;99465.22;5036189;28;20067;-63
2021/12/28 07:27:37;;;;;;;97.03;44.05;;;;;;;-2.88;90.47;99460.50;5035721;28;20065;-63
2021/12/28 07:30:07;;;;;;;102.13;45.95;;;;;;;-2.93;90.63;99451.16;5039541;28;20092;-62
2021/12/28 07:32:35;;;;;;;112.78;47.20;;;;;;;-2.95;90.55;99453.78;5025350;28;20049;-63
2021/12/28 07:35:02;;;;;;;102.65;46.30;;;;;;;-2.96;90.56;99459.81;5039892;28;20073;-63
2021/12/28 07:37:29;;;;;;;99.47;43.38;;;;;;;-2.89;90.47;99457.94;5044555;28;20061;-63
2021/12/28 07:39:56;;;;;;;106.63;46.78;;;;;;;-2.85;90.20;99454.41;5041475;28;20048;-63
2021/12/28 07:42:24;;;;;;;108.18;46.38;;;;;;;-2.76;89.87;99461.91;5035051;28;20049;-63
2021/12/28 07:44:51;;;;;;;96.85;43.50;;;;;;;-2.76;89.92;99445.63;5039300;28;20132;-62
2021/12/28 07:47:18;;;;;;;104.32;44.85;;;;;;;-2.78;89.70;99448.25;5040199;28;20079;-63
2021/12/28 07:49:45;;;;;;;101.70;44.85;;;;;;;-2.74;89.78;99431.00;5038115;28;20048;-63
2021/12/28 07:52:12;;;;;;;94.18;44.78;;;;;;;-2.69;89.52;99429.16;5043233;28;20056;-63
2021/12/28 07:54:39;;;;;;;99.80;43.15;;;;;;;-2.58;89.00;99425.41;5040012;28;20072;-63
2021/12/28 07:57:07;;;;;;;107.72;45.17;;;;;;;-2.71;88.91;99436.06;5047694;28;20128;-63
2021/12/28 07:59:34;;;;;;;99.50;44.13;;;;;;;-2.80;89.54;99425.06;5044591;28;20044;-62
2021/12/28 08:02:01;;;;;;;98.97;44.70;;;;;;;-2.70;89.54;99428.31;5044708;28;20549;-63
2021/12/28 08:04:28;;;;;;;101.75;44.08;;;;;;;-2.61;89.33;99428.09;5032185;28;20048;-63
2021/12/28 08:06:56;;;;;;;100.65;43.50;;;;;;;-2.61;89.43;99425.50;5040222;28;20076;-63
2021/12/28 08:09:23;;;;;;;105.28;46.83;;;;;;;-2.56;89.04;99431.38;5033961;28;20064;-62
2021/12/28 08:11:50;;;;;;;106.15;43.70;;;;;;;-2.47;88.67;99426.91;5042762;28;20266;-63
2021/12/28 08:14:18;;;;;;;102.20;44.95;;;;;;;-2.45;88.38;99430.25;5031585;28;20056;-63
2021/12/28 08:16:46;;;;;;;100.80;42.03;;;;;;;-2.46;88.30;99436.31;5037150;28;20124;-63
2021/12/28 08:19:13;;;;;;;97.45;44.35;;;;;;;-2.42;88.58;99425.88;5039251;28;20128;-62
2021/12/28 08:21:44;;;;;;;96.03;45.33;;;;;;;-2.44;88.34;99430.22;5034712;28;20128;-62
2021/12/28 08:24:11;;;;;;;101.97;43.45;;;;;;;-2.47;88.84;99426.91;5039956;28;20331;-62
2021/12/28 08:26:38;;;;;;;106.82;43.95;;;;;;;-2.43;88.49;99439.66;5038538;28;20067;-62
2021/12/28 08:29:06;;;;;;;104.45;44.25;;;;;;;-2.40;88.56;99442.16;5027886;28;20061;-62
2021/12/28 08:31:34;;;;;;;100.53;42.28;;;;;;;-2.36;88.62;99453.22;5048715;28;20103;-62
2021/12/28 08:34:03;;;;;;;99.95;45.13;;;;;;;-2.29;88.36;99447.03;5042931;28;20411;-62
2021/12/28 08:36:30;;;;;;;98.50;42.30;;;;;;;-2.09;87.81;99433.63;5039420;28;20057;-62
2021/12/28 08:38:57;;;;;;;106.30;45.08;;;;;;;-1.93;86.96;99434.06;5038355;28;20045;-62
2021/12/28 08:41:24;;;;;;;96.45;43.03;;;;;;;-1.99;86.54;99429.06;5043942;28;20056;-62
2021/12/28 08:43:51;;;;;;;103.20;44.50;;;;;;;-1.87;86.36;99431.31;5040940;28;20513;-62
2021/12/28 08:46:18;;;;;;;95.30;41.33;;;;;;;-1.88;86.19;99427.06;5046846;28;20584;-62
2021/12/28 08:48:46;;;;;;;104.88;44.58;;;;;;;-1.80;86.04;99425.13;5034527;28;20081;-62
2021/12/28 08:51:13;;;;;;;98.32;44.03;;;;;;;-1.68;85.79;99411.00;5040510;28;20412;-62
2021/12/28 08:53:40;;;;;;;96.82;41.25;;;;;;;-1.66;85.68;99417.00;5033517;28;20136;-62
2021/12/28 08:56:08;;;;;;;105.82;44.58;;;;;;;-1.58;84.82;99415.00;5044904;28;20080;-65
2021/12/28 08:58:35;;;;;;;98.43;41.90;;;;;;;-1.68;85.06;99413.59;5033442;28;20528;-62
2021/12/28 09:01:03;;;;;;;101.00;43.60;;;;;;;-1.61;85.59;99407.38;5045753;28;20127;-62
2021/12/28 09:03:30;;;;;;;94.82;41.78;;;;;;;-1.54;84.91;99406.28;5033455;28;20057;-63
2021/12/28 09:05:57;;;;;;;101.68;45.28;;;;;;;-1.66;85.22;99402.34;5025351;28;20049;-63
2021/12/28 09:08:24;;;;;;;101.28;43.25;;;;;;;-1.61;nan;99397.06;5028007;28;20091;-63
2021/12/28 09:10:52;;;;;;;96.03;41.03;;;;;;;-1.72;85.63;99402.50;5039537;28;20392;-63
2021/12/28 09:13:19;;;;;;;92.18;40.85;;;;;;;-1.66;85.53;99392.03;5017717;28;20057;-63
2021/12/28 09:15:46;;;;;;;99.10;42.60;;;;;;;-1.69;85.79;99378.34;5041363;28;20128;-60
2021/12/28 09:18:13;;;;;;;93.45;41.63;;;;;;;-1.59;85.75;99387.50;5027923;28;20079;-63
2021/12/28 09:20:41;;;;;;;98.32;43.33;;;;;;;-1.49;86.18;99386.34;5037543;28;20451;-62
2021/12/28 09:23:08;;;;;;;100.93;43.45;;;;;;;-1.41;85.21;99391.28;5027685;28;20136;-62
2021/12/28 09:25:36;;;;;;;93.30;41.15;;;;;;;-1.35;84.53;99397.13;5035489;28;20045;-62
2021/12/28 09:28:05;;;;;;;89.00;40.10;;;;;;;-1.27;84.74;99402.03;5041111;28;20057;-63
2021/12/28 09:30:32;;;;;;;91.53;40.88;;;;;;;-1.32;84.82;99393.59;5035666;28;20274;-61
2021/12/28 09:32:59;;;;;;;104.13;44.38;;;;;;;-1.24;84.96;99394.22;5046691;28;20091;-62
2021/12/28 09:35:27;;;;;;;90.03;39.17;;;;;;;-1.25;84.86;99392.53;5049407;28;20051;-61
2021/12/28 09:37:54;;;;;;;93.65;40.58;;;;;;;-1.28;85.06;99385.72;5043876;28;20387;-62
2021/12/28 09:40:26;;;;;;;95.18;41.63;;;;;;;-1.31;85.10;99395.28;5038242;28;20463;-63
2021/12/28 09:42:53;;;;;;;86.78;40.30;;;;;;;-1.38;85.58;99391.22;5039326;28;20128;-64
2021/12/28 09:45:20;;;;;;;93.70;41.72;;;;;;;-1.27;86.05;99386.56;5040563;28;20080;-61
2021/12/28 09:47:48;;;;;;;97.13;41.90;;;;;;;-1.22;85.23;99382.09;5045243;28;20135;-61
2021/12/28 09:50:16;;;;;;;93.22;42.45;;;;;;;-1.33;85.18;99379.00;5044908;28;20065;-61
2021/12/28 09:52:46;;;;;;;93.45;40.60;;;;;;;-1.39;86.04;99379.19;5039887;28;20050;-61
2021/12/28 09:55:15;;;;;;;93.70;40.42;;;;;;;-1.41;87.01;99381.81;5041941;28;20060;-61
2021/12/28 09:57:42;;;;;;;98.13;43.80;;;;;;;-1.34;87.69;99378.16;5046713;28;20118;-62
2021/12/28 10:00:10;;;;;;;93.00;41.92;;;;;;;-1.28;87.86;99372.81;5038559;28;20044;-62
2021/12/28 10:02:37;;;;;;;92.82;40.63;;;;;;;-1.31;88.31;99375.50;5023743;28;20184;-61
2021/12/28 10:05:14;;;;;;;92.47;41.28;;;;;;;-1.34;89.06;99383.31;5045269;28;20049;-62
2021/12/28 10:07:46;;;;;;;99.97;42.72;;;;;;;-1.34;89.61;99377.31;5036590;28;20475;-61
2021/12/28 10:10:14;;;;;;;104.22;41.78;;;;;;;-1.30;90.15;99373.75;5047935;28;20080;-62
2021/12/28 10:12:44;;;;;;;99.35;42.35;;;;;;;-1.22;90.16;99370.91;5036553;28;20535;-62
2021/12/28 10:15:18;;;;;;;89.78;40.47;;;;;;;-1.23;90.35;99366.66;5036248;28;20055;-62
2021/12/28 10:17:49;;;;;;;94.35;42.22;;;;;;;-1.08;90.14;99351.53;5016020;28;20316;-63
2021/12/28 10:20:19;;;;;;;93.18;43.50;;;;;;;-1.01;89.61;99344.41;5013488;28;20160;-61
2021/12/28 10:22:49;;;;;;;99.57;41.67;;;;;;;-0.91;89.35;99340.63;5032433;28;20053;-60
2021/12/28 10:25:19;;;;;;;91.60;41.10;;;;;;;-0.81;89.03;99336.88;5033663;28;20050;-62
2021/12/28 10:27:49;;;;;;;91.78;41.42;;;;;;;-0.76;89.20;99328.97;5042455;28;20509;-62
2021/12/28 10:30:21;;;;;;;91.88;39.78;;;;;;;-0.62;88.41;99326.75;5047255;28;20052;-62
2021/12/28 10:32:54;;;;;;;85.43;38.90;;;;;;;-0.60;88.40;99332.72;5042488;28;20053;-62
2021/12/28 10:35:24;;;;;;;91.13;40.65;;;;;;;-0.47;90.76;99329.72;5023606;28;20244;-62
2021/12/28 10:37:57;;;;;;;98.00;42.05;;;;;;;-0.34;90.02;99334.41;5039037;28;20071;-61
2021/12/28 10:40:31;;;;;;;88.70;39.55;;;;;;;-0.34;88.55;99331.81;5036623;28;20053;-61
2021/12/28 10:42:58;;;;;;;95.15;44.10;;;;;;;-0.28;87.62;99328.16;5039885;28;20119;-62
2021/12/28 10:45:36;;;;;;;84.35;37.63;;;;;;;-0.21;87.33;99319.31;5041696;28;20530;-59
2021/12/28 10:48:07;;;;;;;97.60;42.33;;;;;;;-0.03;87.23;99318.63;5041140;28;20510;-60
2021/12/28 10:50:38;;;;;;;89.90;40.17;;;;;;;0.11;85.97;99312.09;5028636;28;20064;-62
2021/12/28 10:53:44;;;;;;;88.40;38.65;;;;;;;0.32;84.55;99306.13;5036018;28;20108;-61
2021/12/28 10:56:11;;;;;;;87.22;39.78;;;;;;;0.47;83.35;99292.59;5022379;28;20064;-61
2021/12/28 10:58:46;;;;;;;93.50;40.70;;;;;;;0.52;83.00;99292.41;5036596;28;20140;-62
2021/12/28 11:01:17;;;;;;;85.03;39.10;;;;;;;0.66;82.40;99286.69;5048551;28;20071;-62
2021/12/28 11:03:47;;;;;;;82.93;38.05;;;;;;;0.60;82.59;99281.75;5040975;28;20053;-62
2021/12/28 11:06:28;;;;;;;83.80;39.95;;;;;;;0.48;82.65;99280.47;5042881;28;20454;-62
2021/12/28 11:09:10;;;;;;;85.63;38.63;;;;;;;0.63;83.29;99277.28;5042154;28;20617;-62
2021/12/28 11:11:39;;;;;;;87.95;38.58;;;;;;;0.61;83.19;99273.06;5039384;28;20543;-62
2021/12/28 11:14:12;;;;;;;95.05;38.53;;;;;;;0.57;83.15;99281.84;5043430;28;20057;-61
2021/12/28 11:16:42;;;;;;;88.45;40.40;;;;;;;0.50;83.38;99273.50;5035086;28;20053;-62
2021/12/28 11:19:10;;;;;;;83.45;39.22;;;;;;;0.41;83.62;99264.34;5027511;28;20057;-63
2021/12/28 11:21:39;;;;;;;89.93;39.78;;;;;;;0.41;84.42;99258.34;5041180;28;20057;-62